sensor_id;sensor_type;location;lat;lon;timestamp;P1;durP1;ratioP1;P2;durP2;ratioP2
19089;SDS011;9677;50.656;13.064;2022-09-04T00:02:46;9.37;;;8.50;;
19089;SDS011;9677;50.656;13.064;2022-09-04T00:05:27;9.60;;;8.70;;
19089;SDS011;9677;50.656;13.064;2022-09-04T00:08:12;9.60;;;8.70;;
19089;SDS011;9677;50.656;13.064;2022-09-04T00:10:59;9.60;;;8.70;;
19089;SDS011;9677;50.656;13.064;2022-09-04T00:13:38;9.53;;;8.63;;
19089;SDS011;9677;50.656;13.064;2022-09-04T00:16:11;9.67;;;8.77;;
19089;SDS011;9677;50.656;13.064;2022-09-04T00:18:48;9.50;;;8.60;;
19089;SDS011;9677;50.656;13.064;2022-09-04T00:21:25;9.57;;;8.67;;
19089;SDS011;9677;50.656;13.064;2022-09-04T00:24:02;9.50;;;8.60;;
19089;SDS011;9677;50.656;13.064;2022-09-04T00:26:42;9.40;;;8.50;;
19089;SDS011;9677;50.656;13.064;2022-09-04T00:29:21;9.43;;;8.63;;
19089;SDS011;9677;50.656;13.064;2022-09-04T00:32:00;9.40;;;8.53;;
19089;SDS011;9677;50.656;13.064;2022-09-04T00:34:38;9.50;;;8.60;;
19089;SDS011;9677;50.656;13.064;2022-09-04T00:37:19;10.20;;;8.50;;
19089;SDS011;9677;50.656;13.064;2022-09-04T00:39:56;9.47;;;8.57;;
19089;SDS011;9677;50.656;13.064;2022-09-04T00:42:37;9.47;;;8.60;;
19089;SDS011;9677;50.656;13.064;2022-09-04T00:45:21;9.50;;;8.60;;
19089;SDS011;9677;50.656;13.064;2022-09-04T00:51:12;9.80;;;8.90;;
19089;SDS011;9677;50.656;13.064;2022-09-04T01:00:04;9.53;;;8.63;;
19089;SDS011;9677;50.656;13.064;2022-09-04T01:03:02;9.83;;;8.90;;
19089;SDS011;9677;50.656;13.064;2022-09-04T01:05:53;9.50;;;8.70;;
19089;SDS011;9677;50.656;13.064;2022-09-04T01:08:55;9.60;;;8.70;;
19089;SDS011;9677;50.656;13.064;2022-09-04T01:11:39;9.83;;;8.83;;
19089;SDS011;9677;50.656;13.064;2022-09-04T01:14:13;9.60;;;8.70;;
19089;SDS011;9677;50.656;13.064;2022-09-04T01:16:50;10.60;;;8.60;;
19089;SDS011;9677;50.656;13.064;2022-09-04T01:19:35;9.60;;;8.70;;
19089;SDS011;9677;50.656;13.064;2022-09-04T01:28:26;9.60;;;8.70;;
19089;SDS011;9677;50.656;13.064;2022-09-04T01:31:04;9.30;;;8.50;;
19089;SDS011;9677;50.656;13.064;2022-09-04T01:33:43;9.67;;;8.77;;
19089;SDS011;9677;50.656;13.064;2022-09-04T01:36:27;9.70;;;8.80;;
19089;SDS011;9677;50.656;13.064;2022-09-04T01:39:03;9.57;;;8.70;;
19089;SDS011;9677;50.656;13.064;2022-09-04T01:41:33;9.50;;;8.60;;
19089;SDS011;9677;50.656;13.064;2022-09-04T01:44:07;9.40;;;8.57;;
19089;SDS011;9677;50.656;13.064;2022-09-04T01:46:40;9.60;;;8.70;;
19089;SDS011;9677;50.656;13.064;2022-09-04T01:49:18;9.40;;;8.60;;
19089;SDS011;9677;50.656;13.064;2022-09-04T01:51:59;9.60;;;8.70;;
19089;SDS011;9677;50.656;13.064;2022-09-04T01:54:44;9.80;;;8.80;;
19089;SDS011;9677;50.656;13.064;2022-09-04T01:57:26;9.63;;;8.73;;
19089;SDS011;9677;50.656;13.064;2022-09-04T02:00:07;9.73;;;8.83;;
19089;SDS011;9677;50.656;13.064;2022-09-04T02:02:55;9.70;;;8.80;;
19089;SDS011;9677;50.656;13.064;2022-09-04T02:05:31;9.60;;;8.70;;
19089;SDS011;9677;50.656;13.064;2022-09-04T02:08:18;9.60;;;8.70;;
19089;SDS011;9677;50.656;13.064;2022-09-04T02:11:01;9.40;;;8.60;;
19089;SDS011;9677;50.656;13.064;2022-09-04T02:13:40;9.60;;;8.70;;
19089;SDS011;9677;50.656;13.064;2022-09-04T02:16:23;9.70;;;8.80;;
19089;SDS011;9677;50.656;13.064;2022-09-04T02:19:02;10.00;;;9.00;;
19089;SDS011;9677;50.656;13.064;2022-09-04T02:21:39;9.50;;;8.60;;
19089;SDS011;9677;50.656;13.064;2022-09-04T02:24:15;9.53;;;8.63;;
19089;SDS011;9677;50.656;13.064;2022-09-04T02:26:54;9.83;;;8.93;;
19089;SDS011;9677;50.656;13.064;2022-09-04T02:29:34;9.63;;;8.73;;
19089;SDS011;9677;50.656;13.064;2022-09-04T02:32:09;9.50;;;8.60;;
19089;SDS011;9677;50.656;13.064;2022-09-04T02:34:47;9.83;;;8.93;;
19089;SDS011;9677;50.656;13.064;2022-09-04T02:37:25;9.83;;;8.83;;
19089;SDS011;9677;50.656;13.064;2022-09-04T02:40:02;9.60;;;8.70;;
19089;SDS011;9677;50.656;13.064;2022-09-04T02:42:39;10.10;;;9.10;;
19089;SDS011;9677;50.656;13.064;2022-09-04T02:45:21;9.73;;;8.83;;
19089;SDS011;9677;50.656;13.064;2022-09-04T02:47:58;9.80;;;8.90;;
19089;SDS011;9677;50.656;13.064;2022-09-04T02:50:39;9.97;;;8.97;;
19089;SDS011;9677;50.656;13.064;2022-09-04T02:53:27;10.10;;;9.10;;
19089;SDS011;9677;50.656;13.064;2022-09-04T02:56:08;9.50;;;8.60;;
19089;SDS011;9677;50.656;13.064;2022-09-04T02:58:53;9.40;;;8.50;;
19089;SDS011;9677;50.656;13.064;2022-09-04T03:01:41;9.50;;;8.60;;
19089;SDS011;9677;50.656;13.064;2022-09-04T03:04:17;9.93;;;8.97;;
19089;SDS011;9677;50.656;13.064;2022-09-04T03:06:53;9.80;;;8.90;;
19089;SDS011;9677;50.656;13.064;2022-09-04T03:09:31;9.80;;;8.90;;
19089;SDS011;9677;50.656;13.064;2022-09-04T03:12:11;9.40;;;8.53;;
19089;SDS011;9677;50.656;13.064;2022-09-04T03:14:57;9.60;;;8.70;;
19089;SDS011;9677;50.656;13.064;2022-09-04T03:17:33;10.10;;;9.20;;
19089;SDS011;9677;50.656;13.064;2022-09-04T03:20:13;9.70;;;8.80;;
19089;SDS011;9677;50.656;13.064;2022-09-04T03:22:49;9.60;;;8.70;;
19089;SDS011;9677;50.656;13.064;2022-09-04T03:25:37;9.57;;;8.67;;
19089;SDS011;9677;50.656;13.064;2022-09-04T03:28:23;9.63;;;8.73;;
19089;SDS011;9677;50.656;13.064;2022-09-04T03:31:01;9.70;;;8.80;;
19089;SDS011;9677;50.656;13.064;2022-09-04T03:33:48;9.97;;;9.07;;
19089;SDS011;9677;50.656;13.064;2022-09-04T03:36:24;9.63;;;8.73;;
19089;SDS011;9677;50.656;13.064;2022-09-04T03:39:07;9.30;;;8.50;;
19089;SDS011;9677;50.656;13.064;2022-09-04T03:41:46;10.23;;;8.60;;
19089;SDS011;9677;50.656;13.064;2022-09-04T03:44:26;9.93;;;9.03;;
19089;SDS011;9677;50.656;13.064;2022-09-04T03:47:08;9.57;;;8.67;;
19089;SDS011;9677;50.656;13.064;2022-09-04T03:49:49;9.60;;;8.70;;
19089;SDS011;9677;50.656;13.064;2022-09-04T03:52:30;9.80;;;8.90;;
19089;SDS011;9677;50.656;13.064;2022-09-04T03:55:15;9.50;;;8.70;;
19089;SDS011;9677;50.656;13.064;2022-09-04T03:58:09;9.60;;;8.70;;
19089;SDS011;9677;50.656;13.064;2022-09-04T04:00:50;9.80;;;8.80;;
19089;SDS011;9677;50.656;13.064;2022-09-04T04:03:36;9.50;;;8.70;;
19089;SDS011;9677;50.656;13.064;2022-09-04T04:06:28;9.87;;;8.97;;
19089;SDS011;9677;50.656;13.064;2022-09-04T04:09:10;9.80;;;8.90;;
19089;SDS011;9677;50.656;13.064;2022-09-04T04:15:00;10.13;;;9.13;;
19089;SDS011;9677;50.656;13.064;2022-09-04T04:17:46;9.90;;;9.00;;
19089;SDS011;9677;50.656;13.064;2022-09-04T04:20:32;9.60;;;8.70;;
19089;SDS011;9677;50.656;13.064;2022-09-04T04:23:25;9.80;;;8.90;;
19089;SDS011;9677;50.656;13.064;2022-09-04T04:26:18;9.70;;;8.80;;
19089;SDS011;9677;50.656;13.064;2022-09-04T04:29:03;9.60;;;8.70;;
19089;SDS011;9677;50.656;13.064;2022-09-04T04:31:59;9.90;;;8.90;;
19089;SDS011;9677;50.656;13.064;2022-09-04T04:34:50;9.57;;;8.67;;
19089;SDS011;9677;50.656;13.064;2022-09-04T04:37:39;9.70;;;8.80;;
19089;SDS011;9677;50.656;13.064;2022-09-04T04:40:26;9.80;;;8.90;;
19089;SDS011;9677;50.656;13.064;2022-09-04T04:43:22;9.60;;;8.70;;
19089;SDS011;9677;50.656;13.064;2022-09-04T04:46:01;9.80;;;8.90;;
19089;SDS011;9677;50.656;13.064;2022-09-04T04:48:39;9.60;;;8.70;;
19089;SDS011;9677;50.656;13.064;2022-09-04T04:51:37;10.20;;;9.20;;
19089;SDS011;9677;50.656;13.064;2022-09-04T04:54:33;9.80;;;8.90;;
19089;SDS011;9677;50.656;13.064;2022-09-04T04:57:23;9.70;;;8.80;;
19089;SDS011;9677;50.656;13.064;2022-09-04T05:00:06;9.30;;;8.50;;
19089;SDS011;9677;50.656;13.064;2022-09-04T05:02:55;10.20;;;9.30;;
19089;SDS011;9677;50.656;13.064;2022-09-04T05:05:49;9.80;;;8.90;;
19089;SDS011;9677;50.656;13.064;2022-09-04T05:08:28;9.70;;;8.80;;
19089;SDS011;9677;50.656;13.064;2022-09-04T05:11:06;9.77;;;8.87;;
19089;SDS011;9677;50.656;13.064;2022-09-04T05:13:46;9.80;;;8.90;;
19089;SDS011;9677;50.656;13.064;2022-09-04T05:16:24;9.50;;;8.70;;
19089;SDS011;9677;50.656;13.064;2022-09-04T05:19:10;9.67;;;8.73;;
19089;SDS011;9677;50.656;13.064;2022-09-04T05:21:49;9.77;;;8.87;;
19089;SDS011;9677;50.656;13.064;2022-09-04T05:24:29;10.00;;;9.10;;
19089;SDS011;9677;50.656;13.064;2022-09-04T05:27:03;9.50;;;8.60;;
19089;SDS011;9677;50.656;13.064;2022-09-04T05:29:57;9.40;;;8.60;;
19089;SDS011;9677;50.656;13.064;2022-09-04T05:32:34;9.57;;;8.67;;
19089;SDS011;9677;50.656;13.064;2022-09-04T05:35:11;9.80;;;8.90;;
19089;SDS011;9677;50.656;13.064;2022-09-04T05:37:49;9.80;;;8.90;;
19089;SDS011;9677;50.656;13.064;2022-09-04T05:40:26;9.50;;;8.60;;
19089;SDS011;9677;50.656;13.064;2022-09-04T05:43:03;9.70;;;8.80;;
19089;SDS011;9677;50.656;13.064;2022-09-04T05:45:48;9.50;;;8.60;;
19089;SDS011;9677;50.656;13.064;2022-09-04T05:48:29;9.60;;;8.70;;
19089;SDS011;9677;50.656;13.064;2022-09-04T05:51:26;9.80;;;8.90;;
19089;SDS011;9677;50.656;13.064;2022-09-04T05:54:19;9.70;;;8.80;;
19089;SDS011;9677;50.656;13.064;2022-09-04T05:57:10;9.77;;;8.87;;
19089;SDS011;9677;50.656;13.064;2022-09-04T06:02:51;9.53;;;8.63;;
19089;SDS011;9677;50.656;13.064;2022-09-04T06:05:50;9.67;;;8.77;;
19089;SDS011;9677;50.656;13.064;2022-09-04T06:08:49;9.27;;;8.47;;
19089;SDS011;9677;50.656;13.064;2022-09-04T06:11:38;9.63;;;8.73;;
19089;SDS011;9677;50.656;13.064;2022-09-04T06:14:34;9.80;;;8.90;;
19089;SDS011;9677;50.656;13.064;2022-09-04T06:17:39;9.57;;;8.67;;
19089;SDS011;9677;50.656;13.064;2022-09-04T06:20:31;10.00;;;9.00;;
19089;SDS011;9677;50.656;13.064;2022-09-04T06:26:26;9.90;;;9.00;;
19089;SDS011;9677;50.656;13.064;2022-09-04T06:29:17;9.80;;;8.80;;
19089;SDS011;9677;50.656;13.064;2022-09-04T06:35:17;9.53;;;8.63;;
19089;SDS011;9677;50.656;13.064;2022-09-04T06:38:19;9.70;;;8.80;;
19089;SDS011;9677;50.656;13.064;2022-09-04T06:41:13;9.70;;;8.80;;
19089;SDS011;9677;50.656;13.064;2022-09-04T06:44:14;9.80;;;8.80;;
19089;SDS011;9677;50.656;13.064;2022-09-04T06:46:59;9.60;;;8.70;;
19089;SDS011;9677;50.656;13.064;2022-09-04T06:49:40;9.70;;;8.80;;
19089;SDS011;9677;50.656;13.064;2022-09-04T06:52:33;9.60;;;8.70;;
19089;SDS011;9677;50.656;13.064;2022-09-04T06:55:15;9.30;;;8.50;;
19089;SDS011;9677;50.656;13.064;2022-09-04T06:57:54;9.60;;;8.70;;
19089;SDS011;9677;50.656;13.064;2022-09-04T07:00:42;10.10;;;9.10;;
19089;SDS011;9677;50.656;13.064;2022-09-04T07:03:28;9.83;;;8.83;;
19089;SDS011;9677;50.656;13.064;2022-09-04T07:06:08;9.67;;;8.77;;
19089;SDS011;9677;50.656;13.064;2022-09-04T07:08:50;9.73;;;8.73;;
19089;SDS011;9677;50.656;13.064;2022-09-04T07:11:36;9.33;;;8.50;;
19089;SDS011;9677;50.656;13.064;2022-09-04T07:17:22;9.57;;;8.67;;
19089;SDS011;9677;50.656;13.064;2022-09-04T07:19:57;9.80;;;8.90;;
19089;SDS011;9677;50.656;13.064;2022-09-04T07:22:52;9.80;;;8.90;;
19089;SDS011;9677;50.656;13.064;2022-09-04T07:25:38;9.60;;;8.70;;
19089;SDS011;9677;50.656;13.064;2022-09-04T07:28:17;9.50;;;8.60;;
19089;SDS011;9677;50.656;13.064;2022-09-04T07:31:00;9.50;;;8.60;;
19089;SDS011;9677;50.656;13.064;2022-09-04T07:33:36;9.30;;;8.50;;
19089;SDS011;9677;50.656;13.064;2022-09-04T07:36:12;9.70;;;8.80;;
19089;SDS011;9677;50.656;13.064;2022-09-04T07:38:45;9.80;;;8.90;;
19089;SDS011;9677;50.656;13.064;2022-09-04T07:41:22;9.97;;;8.97;;
19089;SDS011;9677;50.656;13.064;2022-09-04T07:43:59;9.60;;;8.70;;
19089;SDS011;9677;50.656;13.064;2022-09-04T07:46:35;9.57;;;8.67;;
19089;SDS011;9677;50.656;13.064;2022-09-04T07:49:14;9.23;;;8.43;;
19089;SDS011;9677;50.656;13.064;2022-09-04T07:51:51;9.50;;;8.60;;
19089;SDS011;9677;50.656;13.064;2022-09-04T07:54:35;9.53;;;8.63;;
19089;SDS011;9677;50.656;13.064;2022-09-04T07:57:42;9.30;;;8.50;;
19089;SDS011;9677;50.656;13.064;2022-09-04T08:00:24;9.50;;;8.60;;
19089;SDS011;9677;50.656;13.064;2022-09-04T08:03:11;9.27;;;8.47;;
19089;SDS011;9677;50.656;13.064;2022-09-04T08:06:15;10.10;;;8.50;;
19089;SDS011;9677;50.656;13.064;2022-09-04T08:08:51;9.20;;;8.40;;
19089;SDS011;9677;50.656;13.064;2022-09-04T08:11:59;9.13;;;8.33;;
19089;SDS011;9677;50.656;13.064;2022-09-04T08:14:54;9.40;;;8.50;;
19089;SDS011;9677;50.656;13.064;2022-09-04T08:17:38;9.43;;;8.53;;
19089;SDS011;9677;50.656;13.064;2022-09-04T08:20:26;8.93;;;8.13;;
19089;SDS011;9677;50.656;13.064;2022-09-04T08:23:14;9.20;;;8.40;;
19089;SDS011;9677;50.656;13.064;2022-09-04T08:26:10;9.30;;;8.40;;
19089;SDS011;9677;50.656;13.064;2022-09-04T08:28:55;9.00;;;8.20;;
19089;SDS011;9677;50.656;13.064;2022-09-04T08:31:41;9.20;;;8.40;;
19089;SDS011;9677;50.656;13.064;2022-09-04T08:34:25;9.00;;;8.20;;
19089;SDS011;9677;50.656;13.064;2022-09-04T08:37:21;9.07;;;8.27;;
19089;SDS011;9677;50.656;13.064;2022-09-04T08:39:59;9.40;;;8.50;;
19089;SDS011;9677;50.656;13.064;2022-09-04T08:43:06;9.47;;;8.57;;
19089;SDS011;9677;50.656;13.064;2022-09-04T08:49:23;9.43;;;8.53;;
19089;SDS011;9677;50.656;13.064;2022-09-04T08:52:41;9.60;;;8.70;;
19089;SDS011;9677;50.656;13.064;2022-09-04T08:56:10;9.27;;;8.47;;
19089;SDS011;9677;50.656;13.064;2022-09-04T08:59:06;9.13;;;8.33;;
19089;SDS011;9677;50.656;13.064;2022-09-04T09:12:36;9.13;;;8.33;;
19089;SDS011;9677;50.656;13.064;2022-09-04T09:15:48;9.40;;;8.60;;
19089;SDS011;9677;50.656;13.064;2022-09-04T09:18:35;9.40;;;8.50;;
19089;SDS011;9677;50.656;13.064;2022-09-04T09:21:08;9.03;;;8.23;;
19089;SDS011;9677;50.656;13.064;2022-09-04T09:23:53;9.30;;;8.50;;
19089;SDS011;9677;50.656;13.064;2022-09-04T09:26:50;9.40;;;8.50;;
19089;SDS011;9677;50.656;13.064;2022-09-04T09:29:41;9.00;;;8.20;;
19089;SDS011;9677;50.656;13.064;2022-09-04T09:32:45;9.00;;;8.20;;
19089;SDS011;9677;50.656;13.064;2022-09-04T09:39:10;9.17;;;8.30;;
19089;SDS011;9677;50.656;13.064;2022-09-04T09:45:38;9.27;;;8.40;;
19089;SDS011;9677;50.656;13.064;2022-09-04T09:48:36;9.67;;;8.67;;
19089;SDS011;9677;50.656;13.064;2022-09-04T09:51:46;9.47;;;8.57;;
19089;SDS011;9677;50.656;13.064;2022-09-04T09:58:02;9.30;;;8.40;;
19089;SDS011;9677;50.656;13.064;2022-09-04T10:01:00;9.17;;;8.30;;
19089;SDS011;9677;50.656;13.064;2022-09-04T10:03:59;9.20;;;8.30;;
19089;SDS011;9677;50.656;13.064;2022-09-04T10:17:02;9.00;;;8.20;;
19089;SDS011;9677;50.656;13.064;2022-09-04T10:24:00;9.03;;;8.23;;
19089;SDS011;9677;50.656;13.064;2022-09-04T10:27:05;9.07;;;8.27;;
19089;SDS011;9677;50.656;13.064;2022-09-04T10:30:00;8.80;;;8.00;;
19089;SDS011;9677;50.656;13.064;2022-09-04T10:32:39;9.00;;;8.20;;
19089;SDS011;9677;50.656;13.064;2022-09-04T10:35:40;8.77;;;7.97;;
19089;SDS011;9677;50.656;13.064;2022-09-04T10:38:31;9.47;;;8.57;;
19089;SDS011;9677;50.656;13.064;2022-09-04T10:41:31;9.23;;;8.33;;
19089;SDS011;9677;50.656;13.064;2022-09-04T10:44:21;8.87;;;8.07;;
19089;SDS011;9677;50.656;13.064;2022-09-04T10:47:14;9.10;;;8.30;;
19089;SDS011;9677;50.656;13.064;2022-09-04T10:50:02;8.87;;;8.10;;
19089;SDS011;9677;50.656;13.064;2022-09-04T10:56:11;9.20;;;8.40;;
19089;SDS011;9677;50.656;13.064;2022-09-04T10:59:04;8.70;;;8.00;;
19089;SDS011;9677;50.656;13.064;2022-09-04T11:05:04;9.50;;;8.53;;
19089;SDS011;9677;50.656;13.064;2022-09-04T11:14:24;9.40;;;8.50;;
19089;SDS011;9677;50.656;13.064;2022-09-04T11:27:26;8.87;;;8.07;;
19089;SDS011;9677;50.656;13.064;2022-09-04T11:30:34;9.00;;;8.20;;
19089;SDS011;9677;50.656;13.064;2022-09-04T11:33:43;8.90;;;8.10;;
19089;SDS011;9677;50.656;13.064;2022-09-04T11:47:20;8.93;;;8.13;;
19089;SDS011;9677;50.656;13.064;2022-09-04T11:50:29;9.10;;;8.30;;
19089;SDS011;9677;50.656;13.064;2022-09-04T11:53:25;8.97;;;8.17;;
19089;SDS011;9677;50.656;13.064;2022-09-04T11:56:37;8.87;;;8.07;;
19089;SDS011;9677;50.656;13.064;2022-09-04T11:59:28;8.90;;;8.10;;
19089;SDS011;9677;50.656;13.064;2022-09-04T12:02:42;8.80;;;8.00;;
19089;SDS011;9677;50.656;13.064;2022-09-04T12:12:09;8.90;;;8.10;;
19089;SDS011;9677;50.656;13.064;2022-09-04T12:21:56;9.00;;;8.20;;
19089;SDS011;9677;50.656;13.064;2022-09-04T12:25:29;8.70;;;7.90;;
19089;SDS011;9677;50.656;13.064;2022-09-04T12:35:00;8.87;;;8.07;;
19089;SDS011;9677;50.656;13.064;2022-09-04T12:38:07;8.90;;;8.10;;
19089;SDS011;9677;50.656;13.064;2022-09-04T12:40:54;9.50;;;8.50;;
19089;SDS011;9677;50.656;13.064;2022-09-04T12:43:34;8.30;;;7.60;;
19089;SDS011;9677;50.656;13.064;2022-09-04T12:46:19;9.03;;;8.23;;
19089;SDS011;9677;50.656;13.064;2022-09-04T12:49:07;8.73;;;8.00;;
19089;SDS011;9677;50.656;13.064;2022-09-04T12:52:13;8.67;;;7.90;;
19089;SDS011;9677;50.656;13.064;2022-09-04T12:54:51;8.97;;;8.10;;
19089;SDS011;9677;50.656;13.064;2022-09-04T12:57:31;9.07;;;8.20;;
19089;SDS011;9677;50.656;13.064;2022-09-04T13:00:09;8.90;;;8.10;;
19089;SDS011;9677;50.656;13.064;2022-09-04T13:02:53;8.90;;;8.10;;
19089;SDS011;9677;50.656;13.064;2022-09-04T13:05:46;10.43;;;8.20;;
19089;SDS011;9677;50.656;13.064;2022-09-04T13:08:35;8.90;;;8.10;;
19089;SDS011;9677;50.656;13.064;2022-09-04T13:11:22;8.90;;;8.10;;
19089;SDS011;9677;50.656;13.064;2022-09-04T13:14:07;8.90;;;8.00;;
19089;SDS011;9677;50.656;13.064;2022-09-04T13:17:14;8.77;;;8.00;;
19089;SDS011;9677;50.656;13.064;2022-09-04T13:19:56;8.87;;;8.07;;
19089;SDS011;9677;50.656;13.064;2022-09-04T13:22:43;9.83;;;7.97;;
19089;SDS011;9677;50.656;13.064;2022-09-04T13:25:27;8.97;;;8.17;;
19089;SDS011;9677;50.656;13.064;2022-09-04T13:28:12;9.20;;;8.30;;
19089;SDS011;9677;50.656;13.064;2022-09-04T13:30:52;8.80;;;8.00;;
19089;SDS011;9677;50.656;13.064;2022-09-04T13:33:27;9.53;;;8.63;;
19089;SDS011;9677;50.656;13.064;2022-09-04T13:36:17;9.43;;;8.53;;
19089;SDS011;9677;50.656;13.064;2022-09-04T13:39:12;9.00;;;8.20;;
19089;SDS011;9677;50.656;13.064;2022-09-04T13:45:33;8.83;;;8.03;;
19089;SDS011;9677;50.656;13.064;2022-09-04T13:48:08;9.00;;;8.20;;
19089;SDS011;9677;50.656;13.064;2022-09-04T13:50:40;9.13;;;8.33;;
19089;SDS011;9677;50.656;13.064;2022-09-04T13:53:13;9.13;;;8.30;;
19089;SDS011;9677;50.656;13.064;2022-09-04T13:56:07;8.97;;;8.17;;
19089;SDS011;9677;50.656;13.064;2022-09-04T13:58:45;8.90;;;7.87;;
19089;SDS011;9677;50.656;13.064;2022-09-04T14:01:17;8.80;;;8.10;;
19089;SDS011;9677;50.656;13.064;2022-09-04T14:03:51;9.43;;;8.53;;
19089;SDS011;9677;50.656;13.064;2022-09-04T14:06:23;8.90;;;8.10;;
19089;SDS011;9677;50.656;13.064;2022-09-04T14:08:54;9.80;;;8.90;;
19089;SDS011;9677;50.656;13.064;2022-09-04T14:11:35;9.40;;;8.50;;
19089;SDS011;9677;50.656;13.064;2022-09-04T14:14:28;9.13;;;8.30;;
19089;SDS011;9677;50.656;13.064;2022-09-04T14:17:14;9.20;;;8.30;;
19089;SDS011;9677;50.656;13.064;2022-09-04T14:19:54;9.00;;;8.20;;
19089;SDS011;9677;50.656;13.064;2022-09-04T14:22:38;9.27;;;8.37;;
19089;SDS011;9677;50.656;13.064;2022-09-04T14:25:18;9.10;;;8.30;;
19089;SDS011;9677;50.656;13.064;2022-09-04T14:27:57;9.40;;;8.50;;
19089;SDS011;9677;50.656;13.064;2022-09-04T14:30:32;9.40;;;8.50;;
19089;SDS011;9677;50.656;13.064;2022-09-04T14:33:13;9.10;;;8.30;;
19089;SDS011;9677;50.656;13.064;2022-09-04T14:36:01;9.20;;;8.40;;
19089;SDS011;9677;50.656;13.064;2022-09-04T14:38:44;9.07;;;8.23;;
19089;SDS011;9677;50.656;13.064;2022-09-04T14:41:38;9.30;;;8.40;;
19089;SDS011;9677;50.656;13.064;2022-09-04T14:44:23;9.40;;;8.50;;
19089;SDS011;9677;50.656;13.064;2022-09-04T14:47:09;9.30;;;8.40;;
19089;SDS011;9677;50.656;13.064;2022-09-04T14:49:52;9.10;;;8.30;;
19089;SDS011;9677;50.656;13.064;2022-09-04T14:52:22;9.67;;;8.77;;
19089;SDS011;9677;50.656;13.064;2022-09-04T14:54:54;9.07;;;8.27;;
19089;SDS011;9677;50.656;13.064;2022-09-04T14:57:26;9.20;;;8.30;;
19089;SDS011;9677;50.656;13.064;2022-09-04T15:00:02;9.00;;;8.20;;
19089;SDS011;9677;50.656;13.064;2022-09-04T15:02:40;9.20;;;8.40;;
19089;SDS011;9677;50.656;13.064;2022-09-04T15:05:16;9.20;;;8.40;;
19089;SDS011;9677;50.656;13.064;2022-09-04T15:07:53;9.27;;;8.37;;
19089;SDS011;9677;50.656;13.064;2022-09-04T15:10:26;9.50;;;8.60;;
19089;SDS011;9677;50.656;13.064;2022-09-04T15:13:21;9.37;;;8.53;;
19089;SDS011;9677;50.656;13.064;2022-09-04T15:16:07;9.07;;;8.27;;
19089;SDS011;9677;50.656;13.064;2022-09-04T15:18:53;9.20;;;8.40;;
19089;SDS011;9677;50.656;13.064;2022-09-04T15:21:28;9.00;;;8.20;;
19089;SDS011;9677;50.656;13.064;2022-09-04T15:24:14;8.93;;;8.13;;
19089;SDS011;9677;50.656;13.064;2022-09-04T15:26:53;9.20;;;8.33;;
19089;SDS011;9677;50.656;13.064;2022-09-04T15:29:31;9.20;;;8.30;;
19089;SDS011;9677;50.656;13.064;2022-09-04T15:32:06;9.30;;;8.40;;
19089;SDS011;9677;50.656;13.064;2022-09-04T15:34:40;9.17;;;8.30;;
19089;SDS011;9677;50.656;13.064;2022-09-04T15:37:09;9.17;;;8.27;;
19089;SDS011;9677;50.656;13.064;2022-09-04T15:39:47;9.50;;;8.60;;
19089;SDS011;9677;50.656;13.064;2022-09-04T15:42:31;9.53;;;8.63;;
19089;SDS011;9677;50.656;13.064;2022-09-04T15:45:08;9.27;;;8.27;;
19089;SDS011;9677;50.656;13.064;2022-09-04T15:47:53;9.10;;;8.20;;
19089;SDS011;9677;50.656;13.064;2022-09-04T15:50:38;9.57;;;8.63;;
19089;SDS011;9677;50.656;13.064;2022-09-04T15:53:24;9.30;;;8.40;;
19089;SDS011;9677;50.656;13.064;2022-09-04T15:56:03;9.50;;;8.50;;
19089;SDS011;9677;50.656;13.064;2022-09-04T15:58:41;9.60;;;8.47;;
19089;SDS011;9677;50.656;13.064;2022-09-04T16:01:20;9.30;;;8.40;;
19089;SDS011;9677;50.656;13.064;2022-09-04T16:03:56;9.80;;;8.80;;
19089;SDS011;9677;50.656;13.064;2022-09-04T16:06:35;9.30;;;8.27;;
19089;SDS011;9677;50.656;13.064;2022-09-04T16:09:17;9.50;;;8.60;;
19089;SDS011;9677;50.656;13.064;2022-09-04T16:11:56;9.40;;;8.50;;
19089;SDS011;9677;50.656;13.064;2022-09-04T16:14:34;9.20;;;8.37;;
19089;SDS011;9677;50.656;13.064;2022-09-04T16:17:10;9.30;;;8.43;;
19089;SDS011;9677;50.656;13.064;2022-09-04T16:19:46;9.17;;;8.37;;
19089;SDS011;9677;50.656;13.064;2022-09-04T16:22:27;9.23;;;8.33;;
19089;SDS011;9677;50.656;13.064;2022-09-04T16:25:06;9.50;;;8.50;;
19089;SDS011;9677;50.656;13.064;2022-09-04T16:27:41;9.30;;;8.40;;
19089;SDS011;9677;50.656;13.064;2022-09-04T16:30:24;9.30;;;8.50;;
19089;SDS011;9677;50.656;13.064;2022-09-04T16:32:59;12.03;;;8.23;;
19089;SDS011;9677;50.656;13.064;2022-09-04T16:35:30;9.33;;;8.43;;
19089;SDS011;9677;50.656;13.064;2022-09-04T16:38:07;9.30;;;8.40;;
19089;SDS011;9677;50.656;13.064;2022-09-04T16:40:41;9.50;;;8.60;;
19089;SDS011;9677;50.656;13.064;2022-09-04T16:43:19;9.20;;;8.30;;
19089;SDS011;9677;50.656;13.064;2022-09-04T16:46:01;9.13;;;8.33;;
19089;SDS011;9677;50.656;13.064;2022-09-04T16:48:38;9.47;;;8.57;;
19089;SDS011;9677;50.656;13.064;2022-09-04T16:51:14;9.37;;;8.47;;
19089;SDS011;9677;50.656;13.064;2022-09-04T16:54:09;9.50;;;8.60;;
19089;SDS011;9677;50.656;13.064;2022-09-04T16:56:45;9.20;;;8.40;;
19089;SDS011;9677;50.656;13.064;2022-09-04T16:59:39;9.57;;;8.67;;
19089;SDS011;9677;50.656;13.064;2022-09-04T17:02:15;9.70;;;8.70;;
19089;SDS011;9677;50.656;13.064;2022-09-04T17:05:07;9.40;;;8.50;;
19089;SDS011;9677;50.656;13.064;2022-09-04T17:07:45;9.27;;;8.37;;
19089;SDS011;9677;50.656;13.064;2022-09-04T17:10:25;9.70;;;8.70;;
19089;SDS011;9677;50.656;13.064;2022-09-04T17:13:04;9.70;;;8.80;;
19089;SDS011;9677;50.656;13.064;2022-09-04T17:15:41;9.70;;;8.80;;
19089;SDS011;9677;50.656;13.064;2022-09-04T17:18:19;9.83;;;8.90;;
19089;SDS011;9677;50.656;13.064;2022-09-04T17:20:52;9.30;;;8.40;;
19089;SDS011;9677;50.656;13.064;2022-09-04T17:23:47;9.60;;;8.70;;
19089;SDS011;9677;50.656;13.064;2022-09-04T17:26:44;9.30;;;8.40;;
19089;SDS011;9677;50.656;13.064;2022-09-04T17:29:39;9.50;;;8.60;;
19089;SDS011;9677;50.656;13.064;2022-09-04T17:32:14;9.40;;;8.50;;
19089;SDS011;9677;50.656;13.064;2022-09-04T17:35:12;9.27;;;8.37;;
19089;SDS011;9677;50.656;13.064;2022-09-04T17:38:10;9.57;;;8.67;;
19089;SDS011;9677;50.656;13.064;2022-09-04T17:41:09;9.27;;;8.47;;
19089;SDS011;9677;50.656;13.064;2022-09-04T17:44:14;9.73;;;8.80;;
19089;SDS011;9677;50.656;13.064;2022-09-04T17:47:01;9.40;;;8.50;;
19089;SDS011;9677;50.656;13.064;2022-09-04T17:49:44;9.43;;;8.53;;
19089;SDS011;9677;50.656;13.064;2022-09-04T17:52:22;9.10;;;8.20;;
19089;SDS011;9677;50.656;13.064;2022-09-04T17:54:55;9.13;;;8.30;;
19089;SDS011;9677;50.656;13.064;2022-09-04T17:57:41;9.13;;;8.33;;
19089;SDS011;9677;50.656;13.064;2022-09-04T18:00:21;9.30;;;8.40;;
19089;SDS011;9677;50.656;13.064;2022-09-04T18:02:53;9.37;;;8.50;;
19089;SDS011;9677;50.656;13.064;2022-09-04T18:05:27;9.57;;;8.67;;
19089;SDS011;9677;50.656;13.064;2022-09-04T18:08:07;9.73;;;8.83;;
19089;SDS011;9677;50.656;13.064;2022-09-04T18:10:49;9.50;;;8.60;;
19089;SDS011;9677;50.656;13.064;2022-09-04T18:13:24;9.47;;;8.57;;
19089;SDS011;9677;50.656;13.064;2022-09-04T18:16:09;9.40;;;8.50;;
19089;SDS011;9677;50.656;13.064;2022-09-04T18:19:25;9.60;;;8.60;;
19089;SDS011;9677;50.656;13.064;2022-09-04T18:21:59;9.67;;;8.77;;
19089;SDS011;9677;50.656;13.064;2022-09-04T18:24:51;10.50;;;9.40;;
19089;SDS011;9677;50.656;13.064;2022-09-04T18:27:40;19.37;;;13.10;;
19089;SDS011;9677;50.656;13.064;2022-09-04T18:30:44;16.17;;;13.40;;
19089;SDS011;9677;50.656;13.064;2022-09-04T18:33:45;18.80;;;11.80;;
19089;SDS011;9677;50.656;13.064;2022-09-04T18:36:42;17.30;;;12.40;;
19089;SDS011;9677;50.656;13.064;2022-09-04T18:39:47;15.43;;;12.90;;
19089;SDS011;9677;50.656;13.064;2022-09-04T18:42:18;16.97;;;12.80;;